Station Historical Data
Daily Summary for January 25, 2017 Units:  English    Metric   Both
« Previous Day
Next Day »
Daily Weekly Monthly Yearly Custom
  High: Low: Average:
Temperature: 39.8 °F 30.1 °F 34.2 °F
Dew Point: 35.6 °F 27.1 °F 31 °F
Humidity: 95 % 78 % 88 %
Wind Speed: 13.0 mph 0.0 mph 2.4 mph
Wind Gust: 16.0 mph - -
Wind:- - ESE
Pressure: 30.48 in 30.29 in -
Precipitation: 0.00 in    
Historical Graphs
 
 
Tabular Data for January 25, 2017
Time Temperature Dew Point Pressure Wind Wind Speed Wind Gust Humidity Rainfall Rate (Hourly) solar
00:04 32.0 °F 30.7 °F 30.29 in East 11.0 mph 14.0 mph 95 % 0.00 in 0.00 W/m2
00:09 32.0 °F 30.7 °F 30.29 in ESE 2.0 mph 14.0 mph 95 % 0.00 in 0.00 W/m2
00:14 32.0 °F 30.7 °F 30.29 in East 8.0 mph 14.0 mph 95 % 0.00 in 0.00 W/m2
00:19 31.9 °F 30.6 °F 30.29 in East 5.0 mph 15.0 mph 95 % 0.00 in 0.00 W/m2
00:24 31.8 °F 30.5 °F 30.29 in Calm   13.0 mph 95 % 0.00 in 0.00 W/m2
00:29 31.8 °F 30.5 °F 30.29 in ESE 13.0 mph 15.0 mph 95 % 0.00 in 0.00 W/m2
00:34 31.7 °F 30.2 °F 30.29 in Calm   14.0 mph 94 % 0.00 in 0.00 W/m2
00:39 31.7 °F 30.2 °F 30.29 in ESE 11.0 mph 11.0 mph 94 % 0.00 in 0.00 W/m2
00:44 31.6 °F 30.1 °F 30.29 in ESE 5.0 mph 11.0 mph 94 % 0.00 in 0.00 W/m2
00:49 31.6 °F 30.1 °F 30.30 in ESE 5.0 mph 9.0 mph 94 % 0.00 in 0.00 W/m2
00:54 31.6 °F 30.1 °F 30.29 in ESE 8.0 mph 11.0 mph 94 % 0.00 in 0.00 W/m2
00:59 31.6 °F 30.1 °F 30.29 in ESE 13.0 mph 13.0 mph 94 % 0.00 in 0.00 W/m2
01:04 31.6 °F 30.1 °F 30.30 in ESE 7.0 mph 13.0 mph 94 % 0.00 in 0.00 W/m2
01:09 31.5 °F 30.0 °F 30.30 in ESE 2.0 mph 12.0 mph 94 % 0.00 in 0.00 W/m2
01:14 31.5 °F 29.7 °F 30.29 in ESE 4.0 mph 12.0 mph 93 % 0.00 in 0.00 W/m2
01:19 31.5 °F 29.7 °F 30.29 in ESE 8.0 mph 11.0 mph 93 % 0.00 in 0.00 W/m2
01:24 31.5 °F 29.7 °F 30.29 in East 13.0 mph 13.0 mph 93 % 0.00 in 0.00 W/m2
01:29 31.5 °F 29.7 °F 30.30 in East 12.0 mph 14.0 mph 93 % 0.00 in 0.00 W/m2
01:34 31.5 °F 29.7 °F 30.30 in ESE 6.0 mph 12.0 mph 93 % 0.00 in 0.00 W/m2
01:39 31.4 °F 29.6 °F 30.30 in ESE 4.0 mph 16.0 mph 93 % 0.00 in 0.00 W/m2
01:44 31.4 °F 29.6 °F 30.30 in East 9.0 mph 14.0 mph 93 % 0.00 in 0.00 W/m2
01:49 31.4 °F 29.4 °F 30.30 in Calm   9.0 mph 92 % 0.00 in 0.00 W/m2
01:55 31.4 °F 29.4 °F 30.30 in ESE 8.0 mph 15.0 mph 92 % 0.00 in 0.00 W/m2
02:00 31.3 °F 29.2 °F 30.30 in ESE 1.0 mph 15.0 mph 92 % 0.00 in 0.00 W/m2
02:05 31.4 °F 29.4 °F 30.30 in ESE 2.0 mph 11.0 mph 92 % 0.00 in 0.00 W/m2
02:10 31.3 °F 29.2 °F 30.31 in ESE 2.0 mph 12.0 mph 92 % 0.00 in 0.00 W/m2
02:15 31.4 °F 29.4 °F 30.31 in ESE 4.0 mph 11.0 mph 92 % 0.00 in 0.00 W/m2
02:20 31.3 °F 29.2 °F 30.31 in ESE 2.0 mph 11.0 mph 92 % 0.00 in 0.00 W/m2
02:25 31.3 °F 29.2 °F 30.31 in Calm   9.0 mph 92 % 0.00 in 0.00 W/m2
02:30 31.3 °F 29.2 °F 30.31 in ESE 4.0 mph 11.0 mph 92 % 0.00 in 0.00 W/m2
02:35 31.2 °F 28.9 °F 30.31 in ESE 5.0 mph 11.0 mph 91 % 0.00 in 0.00 W/m2
02:36 31.2 °F 28.9 °F 30.32 in ESE 2.0 mph 2.0 mph 91 % 0.00 in 0.00 W/m2
02:40 31.2 °F 28.9 °F 30.31 in ESE 8.0 mph 12.0 mph 91 % 0.00 in 0.00 W/m2
02:45 31.2 °F 28.9 °F 30.32 in ESE 5.0 mph 11.0 mph 91 % 0.00 in 0.00 W/m2
02:50 31.1 °F 28.8 °F 30.32 in ESE 4.0 mph 12.0 mph 91 % 0.00 in 0.00 W/m2
02:55 31.1 °F 28.8 °F 30.32 in Calm   14.0 mph 91 % 0.00 in 0.00 W/m2
03:00 31.1 °F 28.8 °F 30.32 in ESE 4.0 mph 9.0 mph 91 % 0.00 in 0.00 W/m2
03:06 31.1 °F 28.8 °F 30.32 in ESE 6.0 mph 12.0 mph 91 % 0.00 in 0.00 W/m2
03:11 31.0 °F 28.7 °F 30.32 in ESE 7.0 mph 14.0 mph 91 % 0.00 in 0.00 W/m2
03:16 31.1 °F 28.8 °F 30.32 in ESE 8.0 mph 13.0 mph 91 % 0.00 in 0.00 W/m2
03:21 31.1 °F 28.8 °F 30.32 in ESE 4.0 mph 12.0 mph 91 % 0.00 in 0.00 W/m2
03:26 31.1 °F 28.8 °F 30.32 in ESE 5.0 mph 11.0 mph 91 % 0.00 in 0.00 W/m2
03:31 31.1 °F 28.8 °F 30.33 in East 9.0 mph 13.0 mph 91 % 0.00 in 0.00 W/m2
03:36 31.1 °F 28.8 °F 30.33 in Calm   12.0 mph 91 % 0.00 in 0.00 W/m2
03:41 31.0 °F 28.7 °F 30.33 in ESE 9.0 mph 11.0 mph 91 % 0.00 in 0.00 W/m2
03:46 31.0 °F 28.4 °F 30.33 in Calm   9.0 mph 90 % 0.00 in 0.00 W/m2
03:51 31.0 °F 28.4 °F 30.33 in ESE 1.0 mph 11.0 mph 90 % 0.00 in 0.00 W/m2
03:56 31.0 °F 28.4 °F 30.33 in East 8.0 mph 12.0 mph 90 % 0.00 in 0.00 W/m2
04:01 30.9 °F 28.3 °F 30.33 in East 2.0 mph 2.0 mph 90 % 0.00 in 0.00 W/m2
04:06 31.0 °F 28.4 °F 30.33 in ESE 8.0 mph 8.0 mph 90 % 0.00 in 0.00 W/m2
04:11 30.9 °F 28.3 °F 30.33 in ESE 1.0 mph 11.0 mph 90 % 0.00 in 0.00 W/m2
04:16 30.8 °F 28.2 °F 30.33 in ESE 4.0 mph 12.0 mph 90 % 0.00 in 0.00 W/m2
04:21 30.9 °F 28.3 °F 30.33 in ESE 5.0 mph 5.0 mph 90 % 0.00 in 0.00 W/m2
04:26 30.8 °F 28.2 °F 30.33 in ESE 5.0 mph 11.0 mph 90 % 0.00 in 0.00 W/m2
04:31 30.8 °F 28.2 °F 30.33 in ESE 2.0 mph 5.0 mph 90 % 0.00 in 0.00 W/m2
04:36 30.8 °F 28.2 °F 30.34 in ESE 8.0 mph 11.0 mph 90 % 0.00 in 0.00 W/m2
04:41 30.7 °F 27.9 °F 30.34 in ESE 5.0 mph 5.0 mph 89 % 0.00 in 0.00 W/m2
04:46 30.7 °F 28.1 °F 30.34 in ESE 2.0 mph 7.0 mph 90 % 0.00 in 0.00 W/m2
04:51 30.7 °F 27.9 °F 30.34 in ESE 6.0 mph 11.0 mph 89 % 0.00 in 0.00 W/m2
04:56 30.7 °F 27.9 °F 30.34 in ESE 6.0 mph 9.0 mph 89 % 0.00 in 0.00 W/m2
05:01 30.7 °F 28.1 °F 30.34 in East 5.0 mph 13.0 mph 90 % 0.00 in 0.00 W/m2
05:06 30.6 °F 28.0 °F 30.35 in East 2.0 mph 2.0 mph 90 % 0.00 in 0.00 W/m2
05:11 30.6 °F 28.0 °F 30.35 in ESE 2.0 mph 11.0 mph 90 % 0.00 in 0.00 W/m2
05:16 30.6 °F 28.0 °F 30.35 in ESE 6.0 mph 6.0 mph 90 % 0.00 in 0.00 W/m2
05:21 30.6 °F 28.0 °F 30.35 in ESE 7.0 mph 12.0 mph 90 % 0.00 in 0.00 W/m2
05:26 30.6 °F 28.0 °F 30.35 in East 6.0 mph 13.0 mph 90 % 0.00 in 0.00 W/m2
05:31 30.6 °F 28.0 °F 30.35 in Calm   6.0 mph 90 % 0.00 in 0.00 W/m2
05:36 30.6 °F 28.0 °F 30.36 in ESE 5.0 mph 11.0 mph 90 % 0.00 in 0.00 W/m2
05:41 30.6 °F 28.0 °F 30.36 in ESE 6.0 mph 11.0 mph 90 % 0.00 in 0.00 W/m2
05:46 30.5 °F 27.6 °F 30.36 in ESE 9.0 mph 12.0 mph 89 % 0.00 in 0.00 W/m2
05:51 30.5 °F 27.6 °F 30.36 in East 5.0 mph 11.0 mph 89 % 0.00 in 0.00 W/m2
05:56 30.5 °F 27.6 °F 30.36 in East 7.0 mph 12.0 mph 89 % 0.00 in 0.00 W/m2
06:01 30.5 °F 27.6 °F 30.36 in East 9.0 mph 11.0 mph 89 % 0.00 in 0.00 W/m2
06:06 30.5 °F 27.6 °F 30.36 in East 7.0 mph 8.0 mph 89 % 0.00 in 0.00 W/m2
06:11 30.3 °F 27.5 °F 30.36 in ESE 2.0 mph 9.0 mph 89 % 0.00 in 0.00 W/m2
06:17 30.4 °F 27.5 °F 30.36 in ESE 4.0 mph 12.0 mph 89 % 0.00 in 0.00 W/m2
06:22 30.3 °F 27.5 °F 30.36 in ESE 7.0 mph 13.0 mph 89 % 0.00 in 0.00 W/m2
06:27 30.3 °F 27.5 °F 30.37 in ESE 7.0 mph 14.0 mph 89 % 0.00 in 0.00 W/m2
06:32 30.3 °F 27.2 °F 30.37 in ESE 7.0 mph 8.0 mph 88 % 0.00 in 0.00 W/m2
06:37 30.2 °F 27.1 °F 30.37 in ESE 8.0 mph 16.0 mph 88 % 0.00 in 0.00 W/m2
06:42 30.2 °F 27.4 °F 30.38 in ESE 8.0 mph 8.0 mph 89 % 0.00 in 0.00 W/m2
06:47 30.2 °F 27.1 °F 30.38 in ESE 2.0 mph 11.0 mph 88 % 0.00 in 0.00 W/m2
06:52 30.2 °F 27.1 °F 30.38 in ESE 6.0 mph 8.0 mph 88 % 0.00 in 0.00 W/m2
06:57 30.2 °F 27.1 °F 30.38 in ESE 2.0 mph 9.0 mph 88 % 0.00 in 0.00 W/m2
07:02 30.2 °F 27.4 °F 30.38 in ESE 6.0 mph 9.0 mph 89 % 0.00 in 0.00 W/m2
07:07 30.2 °F 27.4 °F 30.39 in East 5.0 mph 13.0 mph 89 % 0.00 in 0.00 W/m2
07:12 30.1 °F 27.3 °F 30.39 in ESE 5.0 mph 13.0 mph 89 % 0.00 in 5.00 W/m2
07:17 30.1 °F 27.3 °F 30.39 in ESE 9.0 mph 11.0 mph 89 % 0.00 in 7.00 W/m2
07:22 30.1 °F 27.3 °F 30.39 in ESE 6.0 mph 11.0 mph 89 % 0.00 in 11.00 W/m2
07:27 30.1 °F 27.3 °F 30.39 in ESE 7.0 mph 8.0 mph 89 % 0.00 in 16.00 W/m2
07:32 30.1 °F 27.3 °F 30.39 in ESE 6.0 mph 9.0 mph 89 % 0.00 in 25.00 W/m2
07:37 30.2 °F 27.4 °F 30.39 in ESE 8.0 mph 13.0 mph 89 % 0.00 in 28.00 W/m2
07:42 30.2 °F 27.4 °F 30.39 in East 7.0 mph 12.0 mph 89 % 0.00 in 26.00 W/m2
07:47 30.2 °F 27.4 °F 30.40 in ESE 11.0 mph 15.0 mph 89 % 0.00 in 33.00 W/m2
07:52 30.3 °F 27.5 °F 30.40 in ESE 9.0 mph 12.0 mph 89 % 0.00 in 47.00 W/m2
07:57 30.4 °F 27.5 °F 30.40 in ESE 8.0 mph 11.0 mph 89 % 0.00 in 65.00 W/m2
08:02 30.5 °F 27.6 °F 30.39 in East 11.0 mph 13.0 mph 89 % 0.00 in 72.00 W/m2
08:07 30.6 °F 27.5 °F 30.39 in East 6.0 mph 9.0 mph 88 % 0.00 in 81.00 W/m2
08:12 30.7 °F 27.9 °F 30.39 in ESE 9.0 mph 14.0 mph 89 % 0.00 in 91.00 W/m2
08:17 30.7 °F 27.6 °F 30.39 in ESE 7.0 mph 8.0 mph 88 % 0.00 in 93.00 W/m2
08:22 30.8 °F 27.7 °F 30.39 in ESE 7.0 mph 12.0 mph 88 % 0.00 in 97.00 W/m2
08:27 30.9 °F 27.8 °F 30.40 in ESE 1.0 mph 11.0 mph 88 % 0.00 in 97.00 W/m2
08:32 31.0 °F 27.9 °F 30.40 in ESE 2.0 mph 11.0 mph 88 % 0.00 in 107.00 W/m2
08:37 31.2 °F 28.1 °F 30.40 in East 2.0 mph 12.0 mph 88 % 0.00 in 116.00 W/m2
08:42 31.2 °F 28.1 °F 30.40 in East 7.0 mph 9.0 mph 88 % 0.00 in 125.00 W/m2
08:47 31.4 °F 28.5 °F 30.40 in East 5.0 mph 14.0 mph 89 % 0.00 in 141.00 W/m2
08:52 31.5 °F 28.6 °F 30.40 in East 2.0 mph 8.0 mph 89 % 0.00 in 155.00 W/m2
08:57 31.6 °F 28.7 °F 30.40 in East 5.0 mph 7.0 mph 89 % 0.00 in 172.00 W/m2
09:02 31.7 °F 28.6 °F 30.40 in Calm   12.0 mph 88 % 0.00 in 188.00 W/m2
09:07 31.8 °F 28.7 °F 30.40 in ESE 5.0 mph 9.0 mph 88 % 0.00 in 262.00 W/m2
09:12 31.9 °F 28.8 °F 30.40 in ESE 6.0 mph 14.0 mph 88 % 0.00 in 283.00 W/m2
09:13 31.9 °F 28.8 °F 30.41 in Calm   14.0 mph 88 % 0.00 in 283.00 W/m2
09:18 32.1 °F 29.0 °F 30.41 in Calm   1.0 mph 88 % 0.00 in 241.00 W/m2
09:23 32.2 °F 29.0 °F 30.41 in ESE 5.0 mph 9.0 mph 88 % 0.00 in 206.00 W/m2
09:28 32.5 °F 29.4 °F 30.41 in ESE 6.0 mph 12.0 mph 88 % 0.00 in 229.00 W/m2
09:33 32.6 °F 29.5 °F 30.41 in ESE 7.0 mph 12.0 mph 88 % 0.00 in 281.00 W/m2
09:39 32.8 °F 29.6 °F 30.41 in Calm   12.0 mph 88 % 0.00 in 466.00 W/m2
09:44 33.0 °F 29.6 °F 30.41 in ESE 8.0 mph 9.0 mph 87 % 0.00 in 311.00 W/m2
09:49 33.2 °F 29.8 °F 30.41 in ESE 1.0 mph 1.0 mph 87 % 0.00 in 446.00 W/m2
09:54 33.5 °F 30.0 °F 30.41 in Calm   11.0 mph 87 % 0.00 in 241.00 W/m2
09:59 33.7 °F 30.2 °F 30.41 in Calm   1.0 mph 87 % 0.00 in 278.00 W/m2
10:04 33.9 °F 30.5 °F 30.41 in Calm   12.0 mph 87 % 0.00 in 366.00 W/m2
10:09 34.0 °F 30.0 °F 30.41 in Calm     85 % 0.00 in 290.00 W/m2
10:14 34.2 °F 30.5 °F 30.41 in Calm   7.0 mph 86 % 0.00 in 279.00 W/m2
10:19 34.4 °F 30.4 °F 30.42 in ESE 6.0 mph 11.0 mph 85 % 0.00 in 279.00 W/m2
10:24 34.6 °F 30.6 °F 30.42 in Calm   9.0 mph 85 % 0.00 in 334.00 W/m2
10:29 34.7 °F 30.7 °F 30.42 in Calm     85 % 0.00 in 239.00 W/m2
10:34 34.8 °F 30.8 °F 30.42 in Calm     85 % 0.00 in 244.00 W/m2
10:39 35.0 °F 31.0 °F 30.42 in Calm     85 % 0.00 in 287.00 W/m2
10:44 35.1 °F 31.0 °F 30.42 in Calm     85 % 0.00 in 299.00 W/m2
10:49 35.2 °F 31.1 °F 30.42 in Calm     85 % 0.00 in 283.00 W/m2
10:54 35.3 °F 30.7 °F 30.43 in Calm     83 % 0.00 in 338.00 W/m2
10:59 35.5 °F 30.9 °F 30.43 in Calm     83 % 0.00 in 367.00 W/m2
11:04 35.6 °F 30.4 °F 30.43 in Calm     81 % 0.00 in 330.00 W/m2
11:09 35.8 °F 30.2 °F 30.43 in Calm     80 % 0.00 in 427.00 W/m2
11:14 36.0 °F 31.0 °F 30.43 in Calm     82 % 0.00 in 533.00 W/m2
11:19 36.3 °F 31.0 °F 30.42 in Calm     81 % 0.00 in 390.00 W/m2
11:24 36.6 °F 31.6 °F 30.42 in ESE 1.0 mph 1.0 mph 82 % 0.00 in 434.00 W/m2
11:29 36.8 °F 31.8 °F 30.42 in Calm   1.0 mph 82 % 0.00 in 417.00 W/m2
11:34 36.9 °F 31.0 °F 30.42 in Calm   1.0 mph 79 % 0.00 in 473.00 W/m2
11:39 37.1 °F 31.5 °F 30.42 in Calm     80 % 0.00 in 436.00 W/m2
11:44 37.3 °F 32.0 °F 30.42 in Calm     81 % 0.00 in 366.00 W/m2
11:49 37.4 °F 32.1 °F 30.42 in Calm   1.0 mph 81 % 0.00 in 406.00 W/m2
11:54 37.6 °F 32.0 °F 30.42 in Calm     80 % 0.00 in 397.00 W/m2
11:59 37.8 °F 32.5 °F 30.41 in Calm     81 % 0.00 in 341.00 W/m2
12:04 37.9 °F 32.0 °F 30.41 in Calm     79 % 0.00 in 383.00 W/m2
12:09 38.0 °F 31.8 °F 30.41 in Calm     78 % 0.00 in 373.00 W/m2
12:14 38.0 °F 32.1 °F 30.41 in Calm     79 % 0.00 in 364.00 W/m2
12:19 38.1 °F 31.9 °F 30.41 in Calm     78 % 0.00 in 371.00 W/m2
12:24 38.3 °F 32.7 °F 30.40 in Calm     80 % 0.00 in 345.00 W/m2
12:29 38.3 °F 33.0 °F 30.41 in Calm     81 % 0.00 in 492.00 W/m2
12:34 38.5 °F 33.8 °F 30.41 in Calm     83 % 0.00 in 534.00 W/m2
12:39 38.6 °F 33.3 °F 30.41 in Calm     81 % 0.00 in 510.00 W/m2
12:44 38.7 °F 33.4 °F 30.41 in Calm     81 % 0.00 in 443.00 W/m2
12:49 38.8 °F 33.5 °F 30.40 in Calm     81 % 0.00 in 332.00 W/m2
12:54 38.8 °F 33.2 °F 30.40 in Calm     80 % 0.00 in 471.00 W/m2
13:00 38.9 °F 32.6 °F 30.40 in Calm     78 % 0.00 in 425.00 W/m2
13:05 39.1 °F 33.2 °F 30.40 in Calm     79 % 0.00 in 355.00 W/m2
13:10 39.2 °F 33.6 °F 30.40 in Calm     80 % 0.00 in 373.00 W/m2
13:11 39.3 °F 33.7 °F 30.40 in Calm     80 % 0.00 in 323.00 W/m2
13:16 39.4 °F 34.1 °F 30.39 in Calm     81 % 0.00 in 295.00 W/m2
13:21 39.5 °F 34.2 °F 30.40 in Calm     81 % 0.00 in 376.00 W/m2
13:26 39.5 °F 34.2 °F 30.40 in Calm     81 % 0.00 in 341.00 W/m2
13:31 39.5 °F 34.2 °F 30.40 in Calm     81 % 0.00 in 265.00 W/m2
13:36 39.5 °F 34.2 °F 30.40 in Calm     81 % 0.00 in 221.00 W/m2
13:41 39.5 °F 34.2 °F 30.40 in Calm     81 % 0.00 in 213.00 W/m2
13:46 39.6 °F 34.0 °F 30.40 in Calm     80 % 0.00 in 197.00 W/m2
13:51 39.6 °F 34.0 °F 30.40 in Calm     80 % 0.00 in 200.00 W/m2
13:56 39.7 °F 34.0 °F 30.40 in Calm     80 % 0.00 in 223.00 W/m2
14:01 39.7 °F 34.4 °F 30.40 in Calm     81 % 0.00 in 211.00 W/m2
14:06 39.6 °F 34.6 °F 30.40 in Calm     82 % 0.00 in 193.00 W/m2
14:11 39.6 °F 34.6 °F 30.40 in Calm     82 % 0.00 in 192.00 W/m2
14:16 39.5 °F 34.2 °F 30.40 in Calm     81 % 0.00 in 188.00 W/m2
14:21 39.5 °F 34.5 °F 30.40 in Calm     82 % 0.00 in 188.00 W/m2
14:26 39.4 °F 34.7 °F 30.40 in Calm     83 % 0.00 in 221.00 W/m2
14:31 39.4 °F 34.7 °F 30.40 in Calm     83 % 0.00 in 244.00 W/m2
14:36 39.4 °F 34.7 °F 30.40 in Calm     83 % 0.00 in 237.00 W/m2
14:41 39.4 °F 34.4 °F 30.40 in Calm     82 % 0.00 in 297.00 W/m2
14:46 39.5 °F 34.8 °F 30.40 in Calm     83 % 0.00 in 306.00 W/m2
14:51 39.5 °F 34.8 °F 30.41 in Calm     83 % 0.00 in 257.00 W/m2
14:56 39.6 °F 34.6 °F 30.41 in Calm     82 % 0.00 in 341.00 W/m2
15:01 39.6 °F 34.6 °F 30.41 in Calm     82 % 0.00 in 359.00 W/m2
15:06 39.7 °F 34.4 °F 30.41 in Calm     81 % 0.00 in 287.00 W/m2
15:11 39.7 °F 34.7 °F 30.41 in Calm     82 % 0.00 in 185.00 W/m2
15:16 39.8 °F 34.8 °F 30.41 in Calm     82 % 0.00 in 250.00 W/m2
15:21 39.8 °F 34.8 °F 30.41 in Calm     82 % 0.00 in 176.00 W/m2
15:26 39.8 °F 35.1 °F 30.41 in Calm     83 % 0.00 in 153.00 W/m2
15:31 39.7 °F 34.0 °F 30.42 in Calm     80 % 0.00 in 155.00 W/m2
15:36 39.7 °F 34.4 °F 30.42 in Calm     81 % 0.00 in 181.00 W/m2
15:41 39.7 °F 34.0 °F 30.42 in Calm     80 % 0.00 in 125.00 W/m2
15:46 39.7 °F 34.0 °F 30.42 in Calm     80 % 0.00 in 111.00 W/m2
15:51 39.7 °F 34.4 °F 30.42 in Calm     81 % 0.00 in 105.00 W/m2
15:56 39.7 °F 34.4 °F 30.42 in Calm     81 % 0.00 in 100.00 W/m2
16:01 39.7 °F 34.4 °F 30.42 in Calm     81 % 0.00 in 109.00 W/m2
16:06 39.6 °F 35.2 °F 30.42 in Calm     84 % 0.00 in 104.00 W/m2
16:11 39.5 °F 35.1 °F 30.42 in Calm     84 % 0.00 in 86.00 W/m2
16:16 39.4 °F 35.3 °F 30.42 in Calm     85 % 0.00 in 69.00 W/m2
16:21 39.3 °F 35.5 °F 30.42 in Calm     86 % 0.00 in 53.00 W/m2
16:26 39.2 °F 35.4 °F 30.42 in Calm     86 % 0.00 in 46.00 W/m2
16:31 39.1 °F 35.6 °F 30.42 in Calm     87 % 0.00 in 42.00 W/m2
16:36 38.9 °F 35.4 °F 30.42 in Calm     87 % 0.00 in 39.00 W/m2
16:41 38.8 °F 35.3 °F 30.42 in Calm     87 % 0.00 in 33.00 W/m2
16:46 38.7 °F 35.5 °F 30.42 in Calm     88 % 0.00 in 28.00 W/m2
16:51 38.5 °F 35.3 °F 30.42 in Calm     88 % 0.00 in 21.00 W/m2
16:56 38.3 °F 35.1 °F 30.42 in Calm     88 % 0.00 in 16.00 W/m2
17:01 38.2 °F 35.2 °F 30.42 in Calm   1.0 mph 89 % 0.00 in 14.00 W/m2
17:06 37.9 °F 35.0 °F 30.42 in Calm     89 % 0.00 in 11.00 W/m2
17:11 37.8 °F 34.9 °F 30.42 in Calm   1.0 mph 89 % 0.00 in 5.00 W/m2
17:16 37.6 °F 34.9 °F 30.42 in SE 1.0 mph 1.0 mph 90 % 0.00 in 5.00 W/m2
17:21 37.3 °F 34.6 °F 30.42 in ESE 4.0 mph 4.0 mph 90 % 0.00 in 0.00 W/m2
17:26 37.1 °F 34.4 °F 30.42 in Calm     90 % 0.00 in 0.00 W/m2
17:31 36.9 °F 34.2 °F 30.42 in Calm   1.0 mph 90 % 0.00 in 0.00 W/m2
17:36 36.9 °F 34.2 °F 30.42 in Calm     90 % 0.00 in 0.00 W/m2
17:42 36.7 °F 34.0 °F 30.42 in Calm   1.0 mph 90 % 0.00 in 0.00 W/m2
17:47 36.6 °F 34.0 °F 30.42 in Calm   2.0 mph 90 % 0.00 in 0.00 W/m2
17:52 36.5 °F 33.8 °F 30.42 in Calm   4.0 mph 90 % 0.00 in 0.00 W/m2
17:57 36.4 °F 33.8 °F 30.41 in Calm   2.0 mph 90 % 0.00 in 0.00 W/m2
18:02 36.2 °F 33.6 °F 30.41 in East 2.0 mph 7.0 mph 90 % 0.00 in 0.00 W/m2
18:07 36.0 °F 33.1 °F 30.41 in ESE 1.0 mph 4.0 mph 89 % 0.00 in 0.00 W/m2
18:12 35.9 °F 33.3 °F 30.41 in ESE 1.0 mph 2.0 mph 90 % 0.00 in 0.00 W/m2
18:17 35.7 °F 33.1 °F 30.42 in ESE 1.0 mph 5.0 mph 90 % 0.00 in 0.00 W/m2
18:22 35.6 °F 33.0 °F 30.42 in ESE 1.0 mph 4.0 mph 90 % 0.00 in 0.00 W/m2
18:27 35.5 °F 32.9 °F 30.42 in Calm     90 % 0.00 in 0.00 W/m2
18:32 35.3 °F 32.7 °F 30.42 in East 1.0 mph 2.0 mph 90 % 0.00 in 0.00 W/m2
18:37 35.2 °F 32.6 °F 30.42 in East 1.0 mph 2.0 mph 90 % 0.00 in 0.00 W/m2
18:42 35.0 °F 32.4 °F 30.42 in East 1.0 mph 4.0 mph 90 % 0.00 in 0.00 W/m2
18:47 34.9 °F 32.5 °F 30.42 in East 1.0 mph 5.0 mph 91 % 0.00 in 0.00 W/m2
18:52 34.8 °F 32.2 °F 30.42 in Calm   2.0 mph 90 % 0.00 in 0.00 W/m2
18:57 34.6 °F 32.0 °F 30.42 in East 4.0 mph 5.0 mph 90 % 0.00 in 0.00 W/m2
19:02 34.5 °F 32.2 °F 30.43 in Calm     91 % 0.00 in 0.00 W/m2
19:07 34.4 °F 32.0 °F 30.43 in East 2.0 mph 8.0 mph 91 % 0.00 in 0.00 W/m2
19:12 34.3 °F 32.0 °F 30.43 in East 1.0 mph 6.0 mph 91 % 0.00 in 0.00 W/m2
19:17 34.3 °F 32.0 °F 30.43 in Calm   3.0 mph 91 % 0.00 in 0.00 W/m2
19:22 34.2 °F 31.9 °F 30.43 in Calm   4.0 mph 91 % 0.00 in 0.00 W/m2
19:27 34.2 °F 31.9 °F 30.43 in Calm     91 % 0.00 in 0.00 W/m2
19:32 34.1 °F 31.8 °F 30.43 in Calm     91 % 0.00 in 0.00 W/m2
19:37 34.1 °F 31.8 °F 30.43 in Calm     91 % 0.00 in 0.00 W/m2
19:42 34.0 °F 31.6 °F 30.43 in East 1.0 mph 3.0 mph 91 % 0.00 in 0.00 W/m2
19:47 33.9 °F 31.6 °F 30.43 in Calm     91 % 0.00 in 0.00 W/m2
19:52 33.8 °F 31.5 °F 30.43 in Calm   4.0 mph 91 % 0.00 in 0.00 W/m2
19:57 33.8 °F 31.5 °F 30.43 in Calm     91 % 0.00 in 0.00 W/m2
20:02 33.8 °F 31.7 °F 30.44 in Calm     92 % 0.00 in 0.00 W/m2
20:07 33.8 °F 31.7 °F 30.44 in Calm     92 % 0.00 in 0.00 W/m2
20:12 33.7 °F 31.6 °F 30.44 in Calm     92 % 0.00 in 0.00 W/m2
20:17 33.7 °F 31.6 °F 30.44 in Calm     92 % 0.00 in 0.00 W/m2
20:22 33.7 °F 31.6 °F 30.44 in Calm     92 % 0.00 in 0.00 W/m2
20:27 33.7 °F 31.6 °F 30.44 in Calm     92 % 0.00 in 0.00 W/m2
20:32 33.7 °F 31.6 °F 30.44 in Calm     92 % 0.00 in 0.00 W/m2
20:37 33.7 °F 31.6 °F 30.44 in Calm   4.0 mph 92 % 0.00 in 0.00 W/m2
20:42 33.7 °F 31.6 °F 30.45 in Calm     92 % 0.00 in 0.00 W/m2
20:47 33.7 °F 31.6 °F 30.45 in Calm     92 % 0.00 in 0.00 W/m2
20:52 33.7 °F 31.6 °F 30.45 in Calm     92 % 0.00 in 0.00 W/m2
20:57 33.7 °F 31.6 °F 30.45 in Calm   3.0 mph 92 % 0.00 in 0.00 W/m2
21:02 33.7 °F 31.6 °F 30.45 in Calm   5.0 mph 92 % 0.00 in 0.00 W/m2
21:07 33.6 °F 31.5 °F 30.45 in East 3.0 mph 3.0 mph 92 % 0.00 in 0.00 W/m2
21:12 33.6 °F 31.5 °F 30.45 in Calm     92 % 0.00 in 0.00 W/m2
21:17 33.6 °F 31.5 °F 30.45 in Calm     92 % 0.00 in 0.00 W/m2
21:22 33.6 °F 31.5 °F 30.46 in Calm     92 % 0.00 in 0.00 W/m2
21:27 33.6 °F 31.5 °F 30.46 in East 1.0 mph 2.0 mph 92 % 0.00 in 0.00 W/m2
21:32 33.6 °F 31.5 °F 30.46 in Calm   3.0 mph 92 % 0.00 in 0.00 W/m2
21:38 33.6 °F 31.5 °F 30.46 in East 1.0 mph 4.0 mph 92 % 0.00 in 0.00 W/m2
21:42 33.6 °F 31.5 °F 30.46 in Calm     92 % 0.00 in 0.00 W/m2
21:48 33.6 °F 31.8 °F 30.46 in Calm   4.0 mph 93 % 0.00 in 0.00 W/m2
21:53 33.6 °F 31.8 °F 30.46 in Calm   6.0 mph 93 % 0.00 in 0.00 W/m2
21:58 33.6 °F 31.8 °F 30.46 in Calm   2.0 mph 93 % 0.00 in 0.00 W/m2
22:03 33.7 °F 31.9 °F 30.47 in East 1.0 mph 8.0 mph 93 % 0.00 in 0.00 W/m2
22:08 33.7 °F 31.9 °F 30.47 in East 1.0 mph 4.0 mph 93 % 0.00 in 0.00 W/m2
22:13 33.7 °F 31.9 °F 30.47 in Calm   4.0 mph 93 % 0.00 in 0.00 W/m2
22:18 33.7 °F 31.9 °F 30.47 in Calm   5.0 mph 93 % 0.00 in 0.00 W/m2
22:23 33.8 °F 32.0 °F 30.47 in Calm   4.0 mph 93 % 0.00 in 0.00 W/m2
22:28 33.8 °F 32.0 °F 30.47 in East 4.0 mph 6.0 mph 93 % 0.00 in 0.00 W/m2
22:33 33.9 °F 32.1 °F 30.47 in Calm   5.0 mph 93 % 0.00 in 0.00 W/m2
22:38 33.9 °F 32.1 °F 30.47 in Calm     93 % 0.00 in 0.00 W/m2
22:43 33.9 °F 32.1 °F 30.48 in East 4.0 mph 4.0 mph 93 % 0.00 in 0.00 W/m2
22:48 33.9 °F 32.1 °F 30.48 in Calm     93 % 0.00 in 0.00 W/m2
22:53 34.0 °F 32.2 °F 30.48 in Calm     93 % 0.00 in 0.00 W/m2
22:58 34.0 °F 32.2 °F 30.48 in East 2.0 mph 5.0 mph 93 % 0.00 in 0.00 W/m2
23:03 34.1 °F 32.0 °F 30.48 in East 1.0 mph 5.0 mph 92 % 0.00 in 0.00 W/m2
23:08 34.0 °F 31.9 °F 30.48 in Calm   5.0 mph 92 % 0.00 in 0.00 W/m2
23:13 34.0 °F 31.9 °F 30.48 in Calm   4.0 mph 92 % 0.00 in 0.00 W/m2
23:18 34.0 °F 31.9 °F 30.48 in Calm   6.0 mph 92 % 0.00 in 0.00 W/m2
23:23 34.0 °F 31.9 °F 30.48 in Calm     92 % 0.00 in 0.00 W/m2
23:28 34.0 °F 31.9 °F 30.48 in Calm   6.0 mph 92 % 0.00 in 0.00 W/m2
23:33 34.1 °F 32.0 °F 30.48 in Calm   5.0 mph 92 % 0.00 in 0.00 W/m2
23:38 34.0 °F 31.9 °F 30.48 in Calm   5.0 mph 92 % 0.00 in 0.00 W/m2
23:43 34.0 °F 31.9 °F 30.48 in Calm   6.0 mph 92 % 0.00 in 0.00 W/m2
23:48 34.0 °F 31.9 °F 30.48 in Calm   6.0 mph 92 % 0.00 in 0.00 W/m2
23:53 34.0 °F 31.9 °F 30.48 in East 2.0 mph 6.0 mph 92 % 0.00 in 0.00 W/m2
23:58 34.0 °F 31.9 °F 30.48 in East 4.0 mph 5.0 mph 92 % 0.00 in 0.00 W/m2
Juneau County Weather
Compliments of Weather Underground - 4.5 mb
 WU-history PHP script courtesy of   Juneau County Weather.
powered by Cumulus v1.9.3 (1059)
Ambient Weather VWS v14.00
Top Contact Website Map Copyright © 2007 - 2018 Foresthillweather.com Never base important decisions on this or any weather information obtained from the Internet